createdAt,value
2022-08-04T00:01:45.734Z,73.19
2022-08-04T00:04:35.912Z,73.01
2022-08-04T00:07:44.284Z,72.83
2022-08-04T00:10:18.870Z,72.88
2022-08-04T00:12:53.905Z,73.01
2022-08-04T00:15:24.410Z,72.49
2022-08-04T00:18:02.071Z,72.53
2022-08-04T00:20:34.178Z,72.32
2022-08-04T00:23:06.723Z,72.17
2022-08-04T00:25:41.071Z,72.12
2022-08-04T00:28:09.997Z,72.18
2022-08-04T00:30:41.917Z,72.21
2022-08-04T00:33:11.490Z,71.62
2022-08-04T00:35:41.087Z,70.96
2022-08-04T00:38:11.293Z,70.87
2022-08-04T00:40:49.047Z,70.80
2022-08-04T00:43:34.094Z,71.00
2022-08-04T00:46:47.176Z,70.79
2022-08-04T00:49:36.106Z,70.37
2022-08-04T00:52:33.941Z,70.45
2022-08-04T00:55:32.950Z,70.65
2022-08-04T00:58:19.107Z,70.49
2022-08-04T01:00:48.361Z,70.15
2022-08-04T01:03:34.886Z,69.29
2022-08-04T01:06:40.377Z,68.73
2022-08-04T01:09:24.513Z,68.00
2022-08-04T01:12:18.046Z,67.14
2022-08-04T01:15:03.640Z,66.15
2022-08-04T01:18:06.976Z,65.58
2022-08-04T01:20:54.908Z,65.22
2022-08-04T01:23:45.079Z,64.75
2022-08-04T01:26:57.617Z,64.25
2022-08-04T01:29:48.853Z,63.80
2022-08-04T01:32:42.659Z,63.68
2022-08-04T01:35:47.536Z,62.95
2022-08-04T01:38:29.494Z,61.66
2022-08-04T01:41:03.473Z,60.18
2022-08-04T01:43:35.111Z,59.19
2022-08-04T01:46:07.055Z,58.51
2022-08-04T01:48:39.886Z,57.73
2022-08-04T01:51:10.864Z,56.89
2022-08-04T01:53:44.671Z,55.67
2022-08-04T01:56:13.780Z,54.02
2022-08-04T01:58:42.671Z,52.30
2022-08-04T02:01:14.412Z,51.00
2022-08-04T02:04:18.525Z,49.75
2022-08-04T02:06:59.822Z,48.69
2022-08-04T02:09:31.703Z,47.90
2022-08-04T02:12:16.119Z,47.30
2022-08-04T02:15:12.086Z,46.62
2022-08-04T02:17:54.913Z,45.70
2022-08-04T02:20:31.108Z,44.36
2022-08-04T02:23:20.549Z,43.18
2022-08-04T02:25:56.663Z,42.29
2022-08-04T02:28:41.427Z,42.16
2022-08-04T02:31:28.688Z,42.28
2022-08-04T02:34:18.070Z,41.18
2022-08-04T02:36:52.491Z,39.66
2022-08-04T02:39:23.275Z,39.06
2022-08-04T02:41:55.239Z,38.20
2022-08-04T02:44:27.603Z,37.97
2022-08-04T02:46:56.612Z,36.75
2022-08-04T02:49:27.276Z,36.50
2022-08-04T02:52:03.253Z,36.14
2022-08-04T02:54:39.619Z,34.74
2022-08-04T02:57:10.429Z,32.62
2022-08-04T03:00:05.622Z,32.92
2022-08-04T03:02:37.556Z,33.95
2022-08-04T03:05:17.897Z,34.94
2022-08-04T03:08:20.560Z,33.97
2022-08-04T03:11:11.072Z,32.86
2022-08-04T03:13:58.339Z,30.41
2022-08-04T03:16:56.047Z,30.72
2022-08-04T03:19:40.003Z,29.89
2022-08-04T03:23:11.485Z,30.52
2022-08-04T03:25:56.928Z,30.53
2022-08-04T03:28:29.347Z,29.62
2022-08-04T03:31:17.316Z,28.97
2022-08-04T03:33:57.090Z,29.74
2022-08-04T03:36:38.045Z,30.57
2022-08-04T03:39:43.800Z,32.20
2022-08-04T03:42:40.000Z,33.80
2022-08-04T03:45:23.761Z,35.71
2022-08-04T03:48:05.174Z,37.38
2022-08-04T03:51:35.081Z,38.88
2022-08-04T03:54:29.344Z,40.91
2022-08-04T03:57:36.673Z,41.65
2022-08-04T04:00:16.760Z,42.45
2022-08-04T04:02:57.510Z,42.89
2022-08-04T04:05:34.294Z,43.28
2022-08-04T04:08:49.686Z,43.34
2022-08-04T04:11:33.390Z,43.30
2022-08-04T04:14:08.197Z,42.97
2022-08-04T04:17:04.929Z,42.77
2022-08-04T04:19:50.500Z,42.12
2022-08-04T04:22:38.210Z,41.61
2022-08-04T04:25:28.811Z,41.11
2022-08-04T04:28:45.938Z,40.99
2022-08-04T04:31:28.826Z,40.96
2022-08-04T04:34:16.341Z,40.24
2022-08-04T04:37:33.240Z,40.67
2022-08-04T04:40:14.637Z,41.10
2022-08-04T04:43:51.609Z,41.48
2022-08-04T04:46:22.429Z,42.08
2022-08-04T04:49:20.245Z,42.94
2022-08-04T04:52:13.486Z,42.23
2022-08-04T04:54:54.014Z,40.61
2022-08-04T04:57:53.031Z,39.31
2022-08-04T05:00:16.825Z,40.02
2022-08-04T05:03:09.358Z,40.70
2022-08-04T05:05:54.521Z,38.97
2022-08-04T05:08:54.398Z,36.40
2022-08-04T05:11:38.784Z,34.62
2022-08-04T05:14:35.736Z,32.56
2022-08-04T05:17:28.621Z,31.58
2022-08-04T05:20:23.544Z,34.16
2022-08-04T05:23:10.002Z,33.45
2022-08-04T05:25:50.179Z,31.25
2022-08-04T05:28:38.902Z,30.29
2022-08-04T05:31:11.944Z,31.63
2022-08-04T05:33:47.922Z,32.07
2022-08-04T05:36:35.361Z,30.53
2022-08-04T05:39:16.400Z,30.44
2022-08-04T05:41:48.023Z,29.40
2022-08-04T05:44:26.804Z,28.17
2022-08-04T05:46:59.688Z,27.08
2022-08-04T05:49:29.934Z,25.56
2022-08-04T05:52:03.524Z,27.09
2022-08-04T05:54:34.127Z,27.99
2022-08-04T05:57:06.216Z,28.51
2022-08-04T05:59:39.759Z,27.43
2022-08-04T06:02:10.891Z,28.04
2022-08-04T06:04:42.188Z,28.48
2022-08-04T06:07:11.950Z,30.09
2022-08-04T06:09:42.328Z,31.50
2022-08-04T06:12:24.566Z,32.76
2022-08-04T06:14:59.546Z,34.05
2022-08-04T06:19:56.853Z,34.80
2022-08-04T06:20:50.179Z,35.10
2022-08-04T06:23:21.454Z,35.02
2022-08-04T06:25:55.797Z,34.58
2022-08-04T06:28:26.728Z,33.64
2022-08-04T06:30:59.064Z,33.19
2022-08-04T06:33:54.807Z,31.13
2022-08-04T06:36:24.325Z,29.94
2022-08-04T06:38:58.370Z,28.28
2022-08-04T06:41:30.412Z,26.62
2022-08-04T06:44:26.640Z,26.38
2022-08-04T06:46:57.163Z,25.71
2022-08-04T06:49:27.236Z,25.41
2022-08-04T06:51:57.883Z,24.69
2022-08-04T06:54:26.743Z,24.71
2022-08-04T06:56:59.109Z,23.26
2022-08-04T06:59:31.103Z,22.40
2022-08-04T07:02:01.515Z,23.21
2022-08-04T07:04:31.222Z,22.99
2022-08-04T07:07:01.102Z,22.50
2022-08-04T07:09:30.268Z,21.74
2022-08-04T07:12:00.830Z,21.96
2022-08-04T07:14:32.120Z,22.43
2022-08-04T07:17:01.307Z,21.97
2022-08-04T07:19:30.247Z,23.38
2022-08-04T07:22:15.952Z,24.57
2022-08-04T07:24:46.986Z,25.00
2022-08-04T07:27:18.253Z,23.89
2022-08-04T07:30:07.940Z,24.09
2022-08-04T07:32:39.039Z,21.84
2022-08-04T07:35:09.321Z,22.01
2022-08-04T07:45:08.794Z,24.11
2022-08-04T07:47:41.016Z,25.09
2022-08-04T07:50:30.033Z,26.94
2022-08-04T07:53:22.701Z,27.59
2022-08-04T07:58:33.821Z,25.05
2022-08-04T08:01:03.221Z,24.18
2022-08-04T08:03:32.398Z,25.03
2022-08-04T08:06:31.438Z,26.66
2022-08-04T08:08:50.034Z,28.10
2022-08-04T08:11:19.843Z,29.58
2022-08-04T08:13:50.199Z,30.48
2022-08-04T08:16:21.515Z,31.92
2022-08-04T08:18:54.289Z,32.92
2022-08-04T08:21:23.126Z,34.26
2022-08-04T08:23:53.115Z,35.34
2022-08-04T08:26:21.863Z,35.65
2022-08-04T08:28:50.726Z,35.94
2022-08-04T08:31:22.098Z,36.25
2022-08-04T08:34:13.794Z,36.51
2022-08-04T08:37:14.517Z,37.05
2022-08-04T08:40:37.842Z,37.60
2022-08-04T08:44:03.897Z,38.17
2022-08-04T08:46:50.093Z,38.79
2022-08-04T08:50:02.228Z,38.96
2022-08-04T08:52:57.267Z,39.38
2022-08-04T08:55:32.949Z,39.41
2022-08-04T08:58:10.362Z,40.19
2022-08-04T09:01:02.887Z,40.10
2022-08-04T09:03:53.346Z,39.55
2022-08-04T09:06:49.225Z,39.98
2022-08-04T09:09:48.747Z,40.05
2022-08-04T09:12:17.331Z,40.21
2022-08-04T09:14:53.856Z,40.45
2022-08-04T09:17:34.291Z,40.75
2022-08-04T09:20:24.504Z,40.67
2022-08-04T09:23:07.565Z,40.76
2022-08-04T09:25:46.226Z,40.58
2022-08-04T09:28:51.754Z,40.66
2022-08-04T09:31:17.925Z,40.89
2022-08-04T09:34:14.906Z,40.94
2022-08-04T09:36:49.328Z,41.03
2022-08-04T09:39:27.642Z,41.19
2022-08-04T09:42:18.844Z,41.30
2022-08-04T09:48:06.570Z,41.41
2022-08-04T09:50:50.234Z,41.54
2022-08-04T09:53:38.315Z,41.84
2022-08-04T09:56:18.789Z,42.34
2022-08-04T09:58:59.281Z,42.73
2022-08-04T10:01:31.351Z,42.88
2022-08-04T10:04:02.602Z,43.08
2022-08-04T10:06:49.904Z,43.43
2022-08-04T10:09:55.467Z,43.69
2022-08-04T10:12:36.274Z,43.86
2022-08-04T10:15:15.451Z,44.24
2022-08-04T10:17:55.601Z,44.54
2022-08-04T10:20:56.827Z,44.96
2022-08-04T10:23:55.727Z,44.78
2022-08-04T10:26:44.666Z,45.00
2022-08-04T10:29:27.218Z,45.42
2022-08-04T10:32:15.996Z,45.47
2022-08-04T10:35:03.140Z,46.04
2022-08-04T10:38:02.855Z,46.25
2022-08-04T10:40:48.688Z,46.40
2022-08-04T10:43:42.046Z,46.78
2022-08-04T10:46:22.220Z,46.95
2022-08-04T10:48:56.534Z,47.43
2022-08-04T10:51:57.636Z,47.79
2022-08-04T10:54:48.603Z,47.75
2022-08-04T10:57:35.945Z,48.36
2022-08-04T11:00:11.184Z,48.72
2022-08-04T11:06:05.516Z,49.58
2022-08-04T11:08:38.465Z,49.91
2022-08-04T11:11:21.398Z,49.78
2022-08-04T11:14:19.405Z,49.90
2022-08-04T11:16:59.977Z,50.15
2022-08-04T11:19:44.747Z,50.88
2022-08-04T11:22:23.256Z,51.57
2022-08-04T11:25:24.475Z,51.91
2022-08-04T11:29:03.076Z,52.11
2022-08-04T11:31:36.027Z,51.90
2022-08-04T11:34:10.272Z,52.38
2022-08-04T11:39:52.471Z,52.40
2022-08-04T11:42:26.986Z,52.46
2022-08-04T11:45:14.183Z,52.87
2022-08-04T11:47:52.085Z,52.76
2022-08-04T11:50:41.948Z,52.97
2022-08-04T11:53:17.622Z,53.06
2022-08-04T11:58:39.136Z,53.26
2022-08-04T12:01:29.929Z,53.46
2022-08-04T12:04:27.300Z,53.65
2022-08-04T12:07:40.671Z,53.85
2022-08-04T12:10:42.159Z,53.92
2022-08-04T12:13:32.416Z,54.37
2022-08-04T12:16:30.403Z,54.65
2022-08-04T12:19:09.150Z,54.94
2022-08-04T12:21:53.254Z,55.26
2022-08-04T12:24:34.010Z,55.55
2022-08-04T12:31:00.426Z,56.06
2022-08-04T12:34:03.645Z,56.16
2022-08-04T12:36:48.604Z,56.41
2022-08-04T12:39:20.329Z,56.48
2022-08-04T12:42:20.850Z,56.87
2022-08-04T12:44:54.636Z,57.00
2022-08-04T12:47:29.142Z,57.24
2022-08-04T12:50:04.134Z,57.50
2022-08-04T12:53:00.915Z,57.73
2022-08-04T12:55:34.034Z,57.86
2022-08-04T12:58:12.298Z,58.28
2022-08-04T13:00:42.362Z,58.36
2022-08-04T13:03:14.991Z,58.68
2022-08-04T13:05:45.660Z,58.99
2022-08-04T13:08:16.832Z,59.25
2022-08-04T13:10:48.611Z,59.52
2022-08-04T13:13:22.804Z,59.60
2022-08-04T13:16:02.622Z,59.71
2022-08-04T13:18:41.305Z,59.96
2022-08-04T13:21:20.824Z,60.04
2022-08-04T13:24:10.091Z,60.17
2022-08-04T13:26:56.150Z,60.33
2022-08-04T13:29:59.932Z,60.50
2022-08-04T13:32:22.821Z,60.47
2022-08-04T13:34:55.741Z,60.83
2022-08-04T13:37:35.389Z,60.70
2022-08-04T13:40:07.183Z,60.66
2022-08-04T13:42:36.991Z,61.03
2022-08-04T13:45:07.830Z,61.34
2022-08-04T13:47:39.858Z,61.23
2022-08-04T13:50:14.365Z,61.18
2022-08-04T13:52:44.362Z,61.42
2022-08-04T13:55:23.597Z,61.68
2022-08-04T13:57:58.050Z,61.27
2022-08-04T14:00:38.251Z,61.48
2022-08-04T14:03:22.924Z,61.64
2022-08-04T14:06:16.208Z,61.52
2022-08-04T14:09:00.133Z,61.46
2022-08-04T14:12:09.412Z,61.45
2022-08-04T14:14:33.435Z,61.52
2022-08-04T14:17:20.111Z,61.04
2022-08-04T14:19:50.622Z,60.93
2022-08-04T14:22:30.978Z,61.09
2022-08-04T14:25:05.134Z,60.94
2022-08-04T14:27:50.440Z,61.00
2022-08-04T14:30:31.376Z,60.93
2022-08-04T14:34:04.030Z,60.81
2022-08-04T14:36:03.802Z,60.83
2022-08-04T14:39:02.845Z,60.61
2022-08-04T14:41:45.951Z,60.97
2022-08-04T14:44:15.008Z,60.90
2022-08-04T14:46:54.683Z,60.96
2022-08-04T14:49:23.849Z,61.27
2022-08-04T14:54:45.460Z,61.35
2022-08-04T14:57:17.809Z,61.80
2022-08-04T15:00:00.772Z,61.86
2022-08-04T15:02:36.665Z,61.97
2022-08-04T15:06:00.530Z,62.27
2022-08-04T15:07:55.732Z,62.02
2022-08-04T15:10:25.679Z,62.39
2022-08-04T15:12:55.457Z,62.65
2022-08-04T15:15:36.645Z,62.47
2022-08-04T15:18:13.632Z,63.00
2022-08-04T15:20:45.105Z,62.96
2022-08-04T15:23:15.001Z,63.01
2022-08-04T15:25:48.988Z,63.07
2022-08-04T15:28:24.043Z,63.41
2022-08-04T15:30:55.466Z,62.90
2022-08-04T15:33:33.875Z,63.05
2022-08-04T15:36:33.403Z,63.20
2022-08-04T15:39:19.879Z,63.66
2022-08-04T15:42:02.984Z,63.84
2022-08-04T15:44:47.458Z,63.87
2022-08-04T15:47:19.472Z,64.22
2022-08-04T15:50:09.845Z,64.79
2022-08-04T15:53:12.979Z,65.03
2022-08-04T15:55:44.420Z,64.71
2022-08-04T15:58:14.863Z,64.69
2022-08-04T16:01:07.420Z,65.21
2022-08-04T16:03:59.262Z,65.22
2022-08-04T16:06:26.855Z,65.23
2022-08-04T16:09:03.491Z,65.37
2022-08-04T16:11:40.661Z,65.52
2022-08-04T16:14:10.862Z,65.48
2022-08-04T16:16:52.220Z,65.45
2022-08-04T16:19:35.312Z,65.99
2022-08-04T16:22:05.903Z,66.03
2022-08-04T16:24:43.134Z,65.77
2022-08-04T16:27:13.582Z,66.30
2022-08-04T16:29:50.115Z,66.51
2022-08-04T16:32:37.510Z,66.28
2022-08-04T16:35:20.307Z,66.54
2022-08-04T16:37:49.284Z,66.25
2022-08-04T16:40:37.158Z,66.60
2022-08-04T16:43:13.411Z,66.34
2022-08-04T16:45:51.356Z,66.55
2022-08-04T16:48:22.500Z,66.39
2022-08-04T16:51:10.226Z,66.48
2022-08-04T16:54:02.763Z,66.60
2022-08-04T16:56:34.152Z,66.79
2022-08-04T16:59:12.210Z,66.90
2022-08-04T17:01:53.230Z,66.85
2022-08-04T17:04:34.296Z,67.19
2022-08-04T17:07:06.040Z,67.15
2022-08-04T17:09:35.041Z,66.88
2022-08-04T17:12:04.105Z,66.99
2022-08-04T17:14:33.054Z,67.25
2022-08-04T17:17:03.124Z,67.42
2022-08-04T17:19:32.104Z,67.52
2022-08-04T17:22:10.081Z,67.75
2022-08-04T17:24:41.325Z,67.99
2022-08-04T17:28:19.821Z,68.03
2022-08-04T17:30:00.447Z,68.24
2022-08-04T17:32:29.523Z,68.19
2022-08-04T17:35:02.207Z,68.24
2022-08-04T17:37:39.386Z,68.21
2022-08-04T17:40:18.270Z,67.97
2022-08-04T17:44:01.425Z,68.57
2022-08-04T17:46:29.483Z,68.74
2022-08-04T17:49:17.295Z,68.47
2022-08-04T17:54:43.419Z,68.41
2022-08-04T17:57:21.617Z,68.78
2022-08-04T17:59:59.834Z,68.61
2022-08-04T18:02:32.754Z,68.70
2022-08-04T18:05:07.581Z,69.01
2022-08-04T18:08:46.460Z,69.07
2022-08-04T18:10:55.465Z,68.83
2022-08-04T18:13:26.986Z,69.04
2022-08-04T18:16:04.077Z,69.35
2022-08-04T18:18:33.770Z,68.83
2022-08-04T18:21:04.685Z,68.84
2022-08-04T18:23:33.845Z,68.78
2022-08-04T18:26:03.945Z,69.23
2022-08-04T18:28:33.968Z,69.35
2022-08-04T18:31:03.159Z,69.61
2022-08-04T18:33:39.617Z,69.54
2022-08-04T18:36:32.466Z,69.52
2022-08-04T18:39:15.164Z,69.83
2022-08-04T18:42:00.886Z,69.70
2022-08-04T18:44:52.358Z,69.75
2022-08-04T18:47:23.896Z,70.01
2022-08-04T18:51:00.870Z,70.26
2022-08-04T18:52:48.176Z,69.68
2022-08-04T18:55:51.560Z,70.45
2022-08-04T18:58:12.806Z,70.36
2022-08-04T19:00:46.112Z,70.33
2022-08-04T19:03:23.081Z,70.43
2022-08-04T19:05:52.588Z,70.63
2022-08-04T19:08:34.878Z,70.69
2022-08-04T19:11:29.296Z,70.67
2022-08-04T19:14:00.124Z,70.76
2022-08-04T19:16:32.922Z,70.81
2022-08-04T19:19:05.654Z,71.07
2022-08-04T19:22:01.037Z,70.83
2022-08-04T19:24:31.345Z,71.02
2022-08-04T19:27:08.194Z,71.11
2022-08-04T19:29:41.166Z,71.04
2022-08-04T19:32:16.000Z,70.95
2022-08-04T19:34:47.544Z,71.37
2022-08-04T19:37:57.097Z,71.06
2022-08-04T19:40:10.388Z,70.79
2022-08-04T19:42:40.911Z,70.89
2022-08-04T19:45:15.444Z,71.21
2022-08-04T19:48:17.796Z,71.14
2022-08-04T19:50:35.163Z,71.39
2022-08-04T19:53:19.075Z,70.99
2022-08-04T19:55:50.379Z,71.34
2022-08-04T19:58:26.355Z,71.37
2022-08-04T20:00:57.351Z,71.55
2022-08-04T20:04:09.751Z,71.56
2022-08-04T20:06:15.347Z,71.69
2022-08-04T20:08:48.032Z,71.92
2022-08-04T20:11:18.906Z,71.50
2022-08-04T20:13:54.709Z,71.30
2022-08-04T20:16:30.390Z,71.31
2022-08-04T20:19:03.657Z,71.38
2022-08-04T20:21:53.671Z,71.18
2022-08-04T20:27:16.132Z,71.16
2022-08-04T20:29:49.239Z,71.54
2022-08-04T20:32:22.205Z,71.63
2022-08-04T20:34:53.115Z,71.33
2022-08-04T20:37:24.084Z,71.07
2022-08-04T20:39:58.839Z,71.53
2022-08-04T20:42:33.630Z,71.74
2022-08-04T20:45:03.751Z,71.59
2022-08-04T20:47:35.553Z,71.74
2022-08-04T20:50:09.650Z,71.67
2022-08-04T20:52:40.099Z,71.96
2022-08-04T20:55:09.619Z,71.86
2022-08-04T20:57:48.034Z,71.75
2022-08-04T21:00:30.025Z,72.11
2022-08-04T21:03:00.518Z,72.05
2022-08-04T21:05:31.637Z,72.15
2022-08-04T21:08:01.873Z,72.27
2022-08-04T21:10:31.251Z,72.40
2022-08-04T21:13:00.302Z,72.00
2022-08-04T21:15:50.778Z,72.23
2022-08-04T21:18:18.290Z,72.33
2022-08-04T21:20:58.252Z,72.58
2022-08-04T21:23:27.133Z,72.34
2022-08-04T21:26:04.026Z,72.43
2022-08-04T21:28:33.535Z,72.21
2022-08-04T21:31:11.066Z,72.18
2022-08-04T21:33:52.173Z,72.17
2022-08-04T21:36:21.324Z,72.04
2022-08-04T21:38:51.255Z,72.38
2022-08-04T21:41:24.638Z,72.19
2022-08-04T21:43:58.967Z,72.06
2022-08-04T21:46:30.239Z,72.35
2022-08-04T21:49:00.979Z,72.12
2022-08-04T21:52:00.150Z,72.11
2022-08-04T21:54:24.160Z,71.98
2022-08-04T21:57:11.778Z,72.27
2022-08-04T21:59:46.065Z,72.04
2022-08-04T22:02:16.209Z,72.36
2022-08-04T22:04:45.550Z,72.19
2022-08-04T22:07:16.730Z,72.10
2022-08-04T22:10:02.611Z,71.97
2022-08-04T22:12:33.809Z,71.75
2022-08-04T22:15:22.426Z,71.38
2022-08-04T22:17:51.721Z,71.22
2022-08-04T22:20:28.044Z,71.25
2022-08-04T22:23:03.429Z,71.12
2022-08-04T22:25:37.819Z,71.01
2022-08-04T22:28:09.745Z,70.99
2022-08-04T22:30:38.804Z,71.05
2022-08-04T22:33:17.414Z,71.05
2022-08-04T22:35:49.291Z,71.01
2022-08-04T22:38:24.340Z,70.84
2022-08-04T22:41:03.862Z,70.85
2022-08-04T22:43:34.681Z,70.93
2022-08-04T22:46:08.984Z,70.82
2022-08-04T22:48:43.260Z,70.86
2022-08-04T22:51:13.248Z,70.84
2022-08-04T22:53:48.717Z,70.64
2022-08-04T22:56:37.112Z,70.92
2022-08-04T22:59:11.400Z,71.00
2022-08-04T23:02:01.215Z,70.73
2022-08-04T23:04:32.660Z,70.86
2022-08-04T23:07:09.315Z,71.00
2022-08-04T23:09:50.685Z,70.69
2022-08-04T23:12:25.907Z,71.02
2022-08-04T23:14:59.356Z,70.72
2022-08-04T23:17:32.931Z,70.80
2022-08-04T23:20:23.308Z,70.60
2022-08-04T23:23:14.680Z,70.86
2022-08-04T23:26:07.088Z,70.77
2022-08-04T23:28:36.432Z,70.38
2022-08-04T23:31:05.998Z,70.44
2022-08-04T23:33:50.623Z,70.49
2022-08-04T23:36:26.281Z,70.67
2022-08-04T23:39:01.370Z,70.85
2022-08-04T23:41:50.967Z,70.69
2022-08-04T23:44:24.702Z,70.24
2022-08-04T23:47:02.181Z,70.44
2022-08-04T23:49:43.423Z,69.99
2022-08-04T23:52:27.923Z,70.30
2022-08-04T23:55:00.316Z,69.87
2022-08-04T23:57:31.391Z,69.87
